createdAt,value
2023-02-22T00:00:11.611Z,100098.91
2023-02-22T00:01:38.128Z,100098.38
2023-02-22T00:03:00.419Z,100084.63
2023-02-22T00:04:30.884Z,100106.53
2023-02-22T00:06:21.671Z,100098.00
2023-02-22T00:07:47.635Z,100102.66
2023-02-22T00:09:21.524Z,100100.47
2023-02-22T00:10:52.961Z,100083.84
2023-02-22T00:12:15.966Z,100092.88
2023-02-22T00:13:39.217Z,100104.78
2023-02-22T00:15:00.949Z,100110.13
2023-02-22T00:16:34.263Z,100096.00
2023-02-22T00:17:57.553Z,100103.72
2023-02-22T00:19:35.554Z,100102.66
2023-02-22T00:21:04.177Z,100119.94
2023-02-22T00:22:27.187Z,100114.59
2023-02-22T00:23:56.918Z,100101.47
2023-02-22T00:25:23.163Z,100108.66
2023-02-22T00:26:48.655Z,100116.22
2023-02-22T00:29:04.650Z,100103.97
2023-02-22T00:31:17.677Z,100120.38
2023-02-22T00:33:29.802Z,100125.19
2023-02-22T00:35:57.869Z,100108.72
2023-02-22T00:47:26.132Z,100112.88
2023-02-22T00:50:40.525Z,100106.97
2023-02-22T00:50:49.022Z,100122.72
2023-02-22T00:52:11.231Z,100127.94
2023-02-22T00:53:50.344Z,100129.78
2023-02-22T00:58:01.156Z,100111.41
2023-02-22T01:02:15.677Z,100128.16
2023-02-22T01:03:48.764Z,100130.00
2023-02-22T01:05:18.900Z,100125.28
2023-02-22T01:06:47.603Z,100124.41
2023-02-22T01:08:35.917Z,100128.09
2023-02-22T01:10:47.891Z,100129.16
2023-02-22T01:13:00.080Z,100144.06
2023-02-22T01:14:34.041Z,100127.84
2023-02-22T01:16:27.157Z,100134.06
2023-02-22T01:18:12.868Z,100116.94
2023-02-22T01:19:34.255Z,100132.91
2023-02-22T01:21:05.354Z,100132.72
2023-02-22T01:22:43.070Z,100134.56
2023-02-22T01:28:13.847Z,100122.03
2023-02-22T01:35:01.582Z,100118.06
2023-02-22T01:36:24.159Z,100128.50
2023-02-22T01:37:45.333Z,100131.88
2023-02-22T12:26:23.214Z,100133.03
2023-02-22T12:27:57.506Z,100127.88
2023-02-22T12:29:37.892Z,100121.88
2023-02-22T12:31:12.542Z,100130.88
2023-02-22T12:32:45.800Z,100122.78
2023-02-22T12:34:49.456Z,100135.72
2023-02-22T12:36:35.924Z,100140.56
2023-02-22T12:38:21.262Z,100134.97
2023-02-22T15:09:48.018Z,100094.69
2023-02-22T15:11:52.059Z,100102.47
2023-02-22T15:13:44.197Z,100110.19
2023-02-22T15:18:36.743Z,100097.44
2023-02-22T15:27:00.839Z,100100.66
2023-02-22T15:29:34.357Z,100101.41
2023-02-22T15:34:55.590Z,100081.53
2023-02-22T15:55:08.728Z,100104.97
2023-02-22T15:56:35.168Z,100102.13
2023-02-22T15:58:01.806Z,100114.34
2023-02-22T15:59:32.217Z,100088.56
2023-02-22T16:01:04.954Z,100106.16
2023-02-22T16:02:37.205Z,100114.53
2023-02-22T16:04:00.141Z,100114.22
2023-02-22T16:05:33.425Z,100105.50
2023-02-22T16:07:07.130Z,100122.09
2023-02-22T16:08:53.964Z,100112.38
2023-02-22T16:10:34.865Z,100110.69
2023-02-22T16:12:12.676Z,100108.34
2023-02-22T16:13:37.264Z,100104.16
2023-02-22T16:15:00.704Z,100113.38
2023-02-22T16:16:27.755Z,100111.38
2023-02-22T16:18:01.682Z,100117.06
2023-02-22T16:19:40.747Z,100118.09
2023-02-22T16:21:13.218Z,100113.56
2023-02-22T16:22:49.504Z,100115.56
2023-02-22T16:24:44.415Z,100106.84
2023-02-22T16:26:26.048Z,100120.09
2023-02-22T16:28:00.267Z,100100.66
2023-02-22T16:29:30.055Z,100121.28
2023-02-22T16:30:57.993Z,100125.31
2023-02-22T16:32:37.977Z,100125.31
2023-02-22T16:34:05.047Z,100112.88
2023-02-22T16:35:29.869Z,100121.44
2023-02-22T16:36:53.101Z,100123.13
2023-02-22T16:38:51.594Z,100125.81
2023-02-22T16:41:12.774Z,100130.50
2023-02-22T16:42:35.481Z,100125.81
2023-02-22T16:43:58.124Z,100134.19
2023-02-22T16:45:36.988Z,100140.59
2023-02-22T16:47:12.961Z,100141.56
2023-02-22T16:48:38.571Z,100148.94
2023-02-22T16:50:04.391Z,100148.78
2023-02-22T16:51:31.212Z,100142.94
2023-02-22T16:52:59.842Z,100147.13
2023-02-22T16:54:27.187Z,100141.44
2023-02-22T16:56:03.897Z,100149.63
2023-02-22T16:57:29.216Z,100147.97
2023-02-22T16:58:54.976Z,100147.97
2023-02-22T17:00:31.461Z,100149.81
2023-02-22T17:01:55.425Z,100147.78
2023-02-22T17:03:20.599Z,100142.75
2023-02-22T17:04:49.924Z,100146.78
2023-02-22T17:06:21.950Z,100156.16
2023-02-22T17:07:44.874Z,100144.13
2023-02-22T17:09:09.611Z,100147.09
2023-02-22T17:10:32.581Z,100155.84
2023-02-22T17:12:04.074Z,100152.66
2023-02-22T17:13:33.033Z,100160.38
2023-02-22T17:14:55.280Z,100162.38
2023-02-22T17:16:18.099Z,100159.69
2023-02-22T17:17:41.011Z,100162.53
2023-02-22T17:19:05.038Z,100153.66
2023-02-22T17:20:31.568Z,100162.19
2023-02-22T17:21:53.849Z,100163.69
2023-02-22T17:23:17.490Z,100163.88
2023-02-22T17:24:42.656Z,100153.81
2023-02-22T17:26:05.424Z,100166.56
2023-02-22T17:27:29.268Z,100163.88
2023-02-22T17:28:54.193Z,100167.75
2023-02-22T17:30:30.408Z,100153.66
2023-02-22T17:31:58.742Z,100158.88
2023-02-22T17:33:27.461Z,100153.31
2023-02-22T17:34:52.403Z,100158.19
2023-02-22T17:36:28.792Z,100153.66
2023-02-22T17:37:54.477Z,100161.69
2023-02-22T17:39:28.732Z,100162.53
2023-02-22T17:40:55.748Z,100162.72
2023-02-22T17:42:18.547Z,100164.53
2023-02-22T17:43:44.316Z,100152.16
2023-02-22T17:45:06.198Z,100165.72
2023-02-22T17:46:29.066Z,100157.31
2023-02-22T17:48:03.339Z,100162.03
2023-02-22T17:49:36.793Z,100168.25
2023-02-22T17:51:05.977Z,100163.22
2023-02-22T17:52:33.469Z,100143.56
2023-02-22T17:53:57.822Z,100163.72
2023-02-22T17:55:23.319Z,100156.66
2023-02-22T17:56:51.602Z,100143.91
2023-02-22T17:58:20.090Z,100165.56
2023-02-22T17:59:48.317Z,100164.69
2023-02-22T18:01:35.210Z,100157.00
2023-02-22T18:03:01.166Z,100153.13
2023-02-22T18:04:23.880Z,100146.25
2023-02-22T18:05:51.012Z,100159.66
2023-02-22T18:07:25.374Z,100162.34
2023-02-22T18:08:59.224Z,100144.75
2023-02-22T18:10:27.095Z,100148.44
2023-02-22T18:11:51.214Z,100152.97
2023-02-22T18:13:40.345Z,100156.31
2023-02-22T18:15:22.517Z,100148.41
2023-02-22T18:17:02.644Z,100150.13
2023-02-22T18:18:36.327Z,100157.97
2023-02-22T18:19:59.613Z,100163.34
2023-02-22T18:21:27.020Z,100159.16
2023-02-22T18:24:34.854Z,100164.69
2023-02-22T18:26:10.823Z,100170.22
2023-02-22T18:27:46.422Z,100160.66
2023-02-22T18:29:12.569Z,100153.44
2023-02-22T18:30:37.959Z,100161.47
2023-02-22T18:32:21.229Z,100156.94
2023-02-22T18:34:49.067Z,100167.16
2023-02-22T18:36:23.156Z,100156.59
2023-02-22T18:37:46.095Z,100172.53
2023-02-22T18:39:19.926Z,100167.47
2023-02-22T18:40:51.566Z,100158.56
2023-02-22T18:42:15.533Z,100162.25
2023-02-22T18:43:38.716Z,100167.78
2023-02-22T18:45:05.592Z,100169.78
2023-02-22T18:46:33.322Z,100172.78
2023-02-22T18:48:05.641Z,100170.44
2023-02-22T18:49:33.916Z,100161.50
2023-02-22T18:51:39.552Z,100154.13
2023-02-22T18:53:18.881Z,100170.03
2023-02-22T18:54:42.955Z,100165.00
2023-02-22T18:56:16.868Z,100156.94
2023-02-22T18:57:45.942Z,100158.59
2023-02-22T18:59:13.746Z,100163.47
2023-02-22T19:00:38.411Z,100138.31
2023-02-22T19:02:07.496Z,100155.72
2023-02-22T19:03:32.613Z,100161.25
2023-02-22T19:04:57.789Z,100157.22
2023-02-22T19:06:30.884Z,100160.66
2023-02-22T19:08:05.452Z,100160.50
2023-02-22T19:09:31.898Z,100165.69
2023-02-22T19:10:55.192Z,100154.25
2023-02-22T19:12:46.749Z,100174.03
2023-02-22T19:14:11.417Z,100166.13
2023-02-22T19:15:34.597Z,100162.97
2023-02-22T19:17:02.645Z,100156.88
2023-02-22T19:18:26.741Z,100168.66
2023-02-22T19:19:49.856Z,100158.72
2023-02-22T19:21:16.343Z,100176.59
2023-02-22T19:24:05.172Z,100164.00
2023-02-22T19:27:55.348Z,100152.22
2023-02-22T19:29:53.760Z,100173.31
2023-02-22T19:31:22.279Z,100155.16
2023-02-22T19:32:54.425Z,100160.34
2023-02-22T19:34:25.210Z,100162.50
2023-02-22T19:36:23.513Z,100169.16
2023-02-22T19:38:17.134Z,100169.22
2023-02-22T19:39:42.500Z,100151.75
2023-02-22T19:41:28.954Z,100148.88
2023-02-22T19:44:54.776Z,100163.66
2023-02-22T19:46:34.723Z,100159.91
2023-02-22T19:48:33.347Z,100155.06
2023-02-22T19:50:11.629Z,100151.75
2023-02-22T19:52:01.277Z,100158.94
2023-02-22T19:53:27.979Z,100168.63
2023-02-22T19:54:54.247Z,100177.81
2023-02-22T19:56:31.449Z,100168.56
2023-02-22T19:57:59.639Z,100170.53
2023-02-22T19:59:42.416Z,100162.13
2023-02-22T20:01:13.716Z,100168.31
2023-02-22T20:02:39.635Z,100155.72
2023-02-22T20:04:04.149Z,100164.41
2023-02-22T20:05:30.801Z,100175.94
2023-02-22T20:06:57.768Z,100173.28
2023-02-22T20:08:21.883Z,100177.09
2023-02-22T20:09:46.786Z,100165.31
2023-02-22T20:11:13.294Z,100164.78
2023-02-22T20:13:19.466Z,100176.00
2023-02-22T20:14:43.401Z,100165.06
2023-02-22T20:16:10.126Z,100172.25
2023-02-22T20:17:41.787Z,100163.31
2023-02-22T20:19:12.124Z,100167.50
2023-02-22T20:20:38.206Z,100177.06
2023-02-22T20:22:03.142Z,100172.28
2023-02-22T20:23:28.396Z,100173.81
2023-02-22T20:25:19.644Z,100176.94
2023-02-22T20:26:50.966Z,100168.00
2023-02-22T20:28:56.810Z,100166.47
2023-02-22T20:30:19.846Z,100176.00
2023-02-22T20:31:54.426Z,100168.56
2023-02-22T20:33:26.166Z,100183.31
2023-02-22T20:34:51.187Z,100173.91
2023-02-22T20:36:48.742Z,100154.28
2023-02-22T20:38:19.463Z,100183.63
2023-02-22T20:39:45.040Z,100173.78
2023-02-22T20:41:27.381Z,100166.78
2023-02-22T20:43:16.976Z,100155.53
2023-02-22T20:44:43.022Z,100162.69
2023-02-22T20:46:08.251Z,100167.03
2023-02-22T20:47:31.747Z,100169.00
2023-02-22T20:49:22.364Z,100172.19
2023-02-22T20:50:52.136Z,100172.91
2023-02-22T20:52:24.378Z,100164.31
2023-02-22T20:53:48.164Z,100174.25
2023-02-22T20:55:38.728Z,100158.97
2023-02-22T20:57:11.565Z,100161.38
2023-02-22T20:58:36.129Z,100154.50
2023-02-22T21:00:22.815Z,100150.13
2023-02-22T21:02:06.739Z,100156.47
2023-02-22T21:03:36.802Z,100149.44
2023-02-22T21:05:06.141Z,100163.19
2023-02-22T21:06:39.171Z,100150.13
2023-02-22T21:08:05.021Z,100149.16
2023-02-22T21:09:26.425Z,100158.84
2023-02-22T21:10:50.228Z,100164.88
2023-02-22T21:12:15.610Z,100154.50
2023-02-22T21:13:37.166Z,100152.41
2023-02-22T21:16:49.319Z,100149.88
2023-02-22T21:18:12.684Z,100155.47
2023-02-22T21:19:39.581Z,100153.13
2023-02-22T21:21:10.585Z,100147.78
2023-02-22T21:22:38.339Z,100159.84
2023-02-22T21:24:18.199Z,100147.22
2023-02-22T21:25:52.200Z,100158.00
2023-02-22T21:27:30.891Z,100145.53
2023-02-22T21:29:24.703Z,100146.09
2023-02-22T21:31:51.201Z,100146.38
2023-02-22T21:33:17.132Z,100154.25
2023-02-22T21:34:45.033Z,100156.47
2023-02-22T21:36:11.463Z,100150.56
2023-02-22T21:37:37.132Z,100142.16
2023-02-22T21:39:18.143Z,100149.75
2023-02-22T21:40:44.766Z,100152.28
2023-02-22T21:42:08.386Z,100148.78
2023-02-22T21:43:29.633Z,100154.94
2023-02-22T21:44:56.432Z,100158.88
2023-02-22T21:46:21.591Z,100136.59
2023-02-22T21:47:45.728Z,100136.31
2023-02-22T21:49:08.958Z,100144.00
2023-02-22T21:50:31.817Z,100143.88
2023-02-22T21:51:54.332Z,100144.53
2023-02-22T21:53:18.770Z,100145.41
2023-02-22T21:54:55.427Z,100147.22
2023-02-22T21:56:37.972Z,100134.59
2023-02-22T21:58:23.754Z,100141.19
2023-02-22T21:59:48.748Z,100131.09
2023-02-22T22:01:17.991Z,100127.72
2023-02-22T22:02:41.204Z,100139.81
2023-02-22T22:04:09.822Z,100136.31
2023-02-22T22:05:34.270Z,100123.53
2023-02-22T22:06:58.282Z,100141.47
2023-02-22T22:08:21.028Z,100138.13
2023-02-22T22:09:45.736Z,100130.97
2023-02-22T22:11:11.385Z,100138.97
2023-02-22T22:12:40.134Z,100128.03
2023-02-22T22:14:03.804Z,100133.78
2023-02-22T22:15:36.991Z,100131.41
2023-02-22T22:17:01.197Z,100134.22
2023-02-22T22:18:22.402Z,100136.88
2023-02-22T22:19:46.941Z,100128.47
2023-02-22T22:21:18.524Z,100119.94
2023-02-22T22:23:00.750Z,100112.38
2023-02-22T22:24:26.235Z,100124.44
2023-02-22T22:25:51.496Z,100129.06
2023-02-22T22:27:16.560Z,100129.22
2023-02-22T22:28:42.628Z,100115.63
2023-02-22T22:30:06.046Z,100118.13
2023-02-22T22:31:29.509Z,100115.06
2023-02-22T22:32:55.429Z,100118.56
2023-02-22T22:34:18.020Z,100118.88
2023-02-22T22:35:42.330Z,100107.09
2023-02-22T22:37:05.024Z,100114.97
2023-02-22T22:38:26.885Z,100114.41
2023-02-22T22:39:49.648Z,100107.69
2023-02-22T22:41:14.549Z,100097.91
2023-02-22T22:42:38.714Z,100102.22
2023-02-22T22:44:01.305Z,100096.06
2023-02-22T22:45:23.085Z,100097.75
2023-02-22T22:47:05.112Z,100104.88
2023-02-22T22:48:31.722Z,100095.25
2023-02-22T22:50:01.658Z,100106.75
2023-02-22T22:51:27.676Z,100113.91
2023-02-22T22:52:58.836Z,100097.53
2023-02-22T22:54:22.428Z,100093.19
2023-02-22T22:55:45.135Z,100104.38
2023-02-22T22:57:09.198Z,100103.16
2023-02-22T22:58:42.200Z,100100.78
2023-02-22T23:02:14.426Z,100094.63
2023-02-22T23:03:39.748Z,100105.94
2023-02-22T23:05:02.680Z,100096.88
2023-02-22T23:08:43.552Z,100086.47
2023-02-22T23:10:08.686Z,100099.97
2023-02-22T23:11:37.962Z,100103.59
2023-02-22T23:12:59.762Z,100089.31
2023-02-22T23:14:26.132Z,100104.16
2023-02-22T23:15:48.233Z,100090.56
2023-02-22T23:17:15.677Z,100099.13
2023-02-22T23:18:43.724Z,100089.44
2023-02-22T23:20:12.615Z,100103.88
2023-02-22T23:21:38.596Z,100101.34
2023-02-22T23:23:06.794Z,100091.81
2023-02-22T23:24:31.812Z,100100.91
2023-02-22T23:26:11.829Z,100104.44
2023-02-22T23:27:35.265Z,100086.06
2023-02-22T23:29:03.902Z,100100.38
2023-02-22T23:30:38.795Z,100100.50
2023-02-22T23:34:16.757Z,100102.75
2023-02-22T23:35:42.711Z,100099.94
2023-02-22T23:37:10.106Z,100092.94
2023-02-22T23:38:36.761Z,100092.78
2023-02-22T23:40:07.705Z,100090.69
2023-02-22T23:41:35.818Z,100102.06
2023-02-22T23:43:04.533Z,100084.09
2023-02-22T23:44:46.492Z,100090.13
2023-02-22T23:46:36.824Z,100080.03
2023-02-22T23:48:03.359Z,100098.69
2023-02-22T23:49:38.921Z,100080.16
2023-02-22T23:51:14.600Z,100102.47
2023-02-22T23:52:47.926Z,100100.94
2023-02-22T23:54:37.106Z,100068.25
2023-02-22T23:56:22.554Z,100072.03
2023-02-22T23:58:23.610Z,100096.97
2023-02-22T23:59:51.661Z,100084.34
